Kinrikimaru — JL6545 — position and weather

sailwx.info

Track history (hours):
 
Tides and Currents Weather Stations Pressure Air Temp Water Temp Dewpoint Dewpoint Depression Visibility Wind Speed Wind Dir Waves Ship Positions

Kinrikimaru

Last reported at 2015-Jul-29 05:18 UTC. Time now 2015-Jul-29 11:28 UTC.
Position N 34°35' E 135°26'.

Length 76 m; draft 4 m.

Type: Cargo ship. MMSI: 431500615.

Date/timePositionNaut miles runAvg speedWind from/ knotsBaromVisibWave heightAir tempDewpointWater temp
2015-Jul-29 05:18N 34°35' E 135°26'3 3.8
2015-Jul-29 04:33N 34°36' E 135°23'1312.6
2015-Jul-29 03:33N 34°35' E 135°08'11 0.3
2015-Jul-27 10:11N 34°37' E 134°55'914.1
2015-Jul-27 09:33N 34°36' E 135°05'1312.9
2015-Jul-27 08:33N 34°37' E 135°21'4 1.0
2015-Jul-27 04:32N 34°35' E 135°26'0 0.0
2015-Jul-27 02:32N 34°35' E 135°26'1010.3
2015-Jul-27 01:33N 34°35' E 135°13'  
2015-Jul-24 14:33N 34°36' E 135°05'1312.6
2015-Jul-24 13:33N 34°37' E 135°20'5 4.7
2015-Jul-24 12:33N 34°35' E 135°26'0 0.0
2015-Jul-24 11:31N 34°35' E 135°26'0 0.0
2015-Jul-24 07:12N 34°35' E 135°26'0 0.5
2015-Jul-24 06:33N 34°35' E 135°25'5 4.9
2015-Jul-24 05:33N 34°34' E 135°19'1413.4
2015-Jul-24 04:32N 34°24' E 135°08'1414.2
2015-Jul-24 03:33N 34°11' E 135°01'227 9.8
2015-Jul-23 04:17N 35°03' E 139°30'911.8
2015-Jul-23 03:34N 35°06' E 139°40'1111.0
2015-Jul-23 02:34N 35°16' E 139°45'1212.3
2015-Jul-23 01:34N 35°28' E 139°42'2 1.7
2015-Jul-23 00:33N 35°30' E 139°43'0 0.0
2015-Jul-22 23:33N 35°30' E 139°43'0 0.0
2015-Jul-22 22:33N 35°30' E 139°43'0 0.0
2015-Jul-22 21:27N 35°30' E 139°43'0 0.0
2015-Jul-22 20:27N 35°30' E 139°43'0 0.0
2015-Jul-22 19:33N 35°30' E 139°43'0 0.0
2015-Jul-22 18:33N 35°30' E 139°43'0 0.0
2015-Jul-22 17:33N 35°30' E 139°43'0 0.0
2015-Jul-22 16:33N 35°30' E 139°43'0 0.0
2015-Jul-22 15:33N 35°30' E 139°43'0 0.0
2015-Jul-22 14:30N 35°30' E 139°43'0 0.0
2015-Jul-22 13:33N 35°30' E 139°43'0 0.0
2015-Jul-22 12:33N 35°30' E 139°43'0 0.0
2015-Jul-22 11:30N 35°30' E 139°43'0 0.0
2015-Jul-22 10:33N 35°30' E 139°43'0 0.0
2015-Jul-22 09:30N 35°30' E 139°43'0 0.0
2015-Jul-22 08:30N 35°30' E 139°43'0 0.0
2015-Jul-22 07:30N 35°30' E 139°43'0 0.0
2015-Jul-22 06:30N 35°30' E 139°43'0 0.0
2015-Jul-22 05:33N 35°30' E 139°43'0 0.0
2015-Jul-22 04:33N 35°30' E 139°43'0 0.0
2015-Jul-22 03:33N 35°30' E 139°43'0 0.0
2015-Jul-22 02:33N 35°30' E 139°43'0 0.0
2015-Jul-22 01:33N 35°30' E 139°43'0 0.0
2015-Jul-22 00:33N 35°30' E 139°43'0 0.0
2015-Jul-21 23:33N 35°30' E 139°43'3 3.2
2015-Jul-21 22:33N 35°30' E 139°47'1 1.5
2015-Jul-21 21:33N 35°29' E 139°48'0 0.0
2015-Jul-21 20:34N 35°29' E 139°48'0 0.0
2015-Jul-21 19:33N 35°29' E 139°48'0 0.0
2015-Jul-21 18:32N 35°29' E 139°48'0 0.0
2015-Jul-21 17:33N 35°29' E 139°48'0 0.0
2015-Jul-21 16:33N 35°29' E 139°48'0 0.0
2015-Jul-21 15:34N 35°29' E 139°48'0 0.0
2015-Jul-21 14:34N 35°29' E 139°48'0 0.0
2015-Jul-21 13:33N 35°29' E 139°48'0 0.0
2015-Jul-21 12:33N 35°29' E 139°48'0 0.0
2015-Jul-21 11:33N 35°29' E 139°48'0 0.0
2015-Jul-21 10:33N 35°29' E 139°48'5 4.6
2015-Jul-21 09:34N 35°25' E 139°46'1211.9
2015-Jul-21 08:34N 35°13' E 139°47'24710.8
2015-Jul-20 09:33N 34°01' E 134°59'1111.5
2015-Jul-20 08:33N 34°13' E 134°58'1211.8
2015-Jul-20 07:31N 34°24' E 135°03'1212.8
2015-Jul-20 06:33N 34°32' E 135°15'9 8.9
2015-Jul-20 05:33N 34°35' E 135°26'0 0.0
2015-Jul-20 04:22N 34°35' E 135°26'0 0.0
2015-Jul-20 03:28N 34°35' E 135°26'0 0.0
2015-Jul-20 01:28N 34°35' E 135°26'0 0.0
2015-Jul-20 00:28N 34°35' E 135°26'0 0.0
2015-Jul-19 23:33N 34°35' E 135°26'4 3.8
2015-Jul-19 22:33N 34°34' E 135°21'1110.7
2015-Jul-19 21:31N 34°33' E 135°08'9012.9
2015-Jul-19 14:33N 34°14' E 133°21'  
Track history (hours):
 
Tides and Currents Weather Stations Pressure Air Temp Water Temp Dewpoint Dewpoint Depression Visibility Wind Speed Wind Dir Waves Ship Positions

Kinrikimaru

Last reported at 2015-Jul-29 05:18 UTC. Time now 2015-Jul-29 11:28 UTC.
Position N 34°35' E 135°26'.

Length 76 m; draft 4 m.

Type: Cargo ship. MMSI: 431500615.

Date/timePositionNaut miles runAvg speedWind from/ knotsBaromVisibWave heightAir tempDewpointWater temp
2015-Jul-29 05:18N 34°35' E 135°26'3 3.8
2015-Jul-29 04:33N 34°36' E 135°23'1312.6
2015-Jul-29 03:33N 34°35' E 135°08'11 0.3
2015-Jul-27 10:11N 34°37' E 134°55'914.1
2015-Jul-27 09:33N 34°36' E 135°05'1312.9
2015-Jul-27 08:33N 34°37' E 135°21'4 1.0
2015-Jul-27 04:32N 34°35' E 135°26'0 0.0
2015-Jul-27 02:32N 34°35' E 135°26'1010.3
2015-Jul-27 01:33N 34°35' E 135°13'  
2015-Jul-24 14:33N 34°36' E 135°05'1312.6
2015-Jul-24 13:33N 34°37' E 135°20'5 4.7
2015-Jul-24 12:33N 34°35' E 135°26'0 0.0
2015-Jul-24 11:31N 34°35' E 135°26'0 0.0
2015-Jul-24 07:12N 34°35' E 135°26'0 0.5
2015-Jul-24 06:33N 34°35' E 135°25'5 4.9
2015-Jul-24 05:33N 34°34' E 135°19'1413.4
2015-Jul-24 04:32N 34°24' E 135°08'1414.2
2015-Jul-24 03:33N 34°11' E 135°01'227 9.8
2015-Jul-23 04:17N 35°03' E 139°30'911.8
2015-Jul-23 03:34N 35°06' E 139°40'1111.0
2015-Jul-23 02:34N 35°16' E 139°45'1212.3
2015-Jul-23 01:34N 35°28' E 139°42'2 1.7
2015-Jul-23 00:33N 35°30' E 139°43'0 0.0
2015-Jul-22 23:33N 35°30' E 139°43'0 0.0
2015-Jul-22 22:33N 35°30' E 139°43'0 0.0
2015-Jul-22 21:27N 35°30' E 139°43'0 0.0
2015-Jul-22 20:27N 35°30' E 139°43'0 0.0
2015-Jul-22 19:33N 35°30' E 139°43'0 0.0
2015-Jul-22 18:33N 35°30' E 139°43'0 0.0
2015-Jul-22 17:33N 35°30' E 139°43'0 0.0
2015-Jul-22 16:33N 35°30' E 139°43'0 0.0
2015-Jul-22 15:33N 35°30' E 139°43'0 0.0
2015-Jul-22 14:30N 35°30' E 139°43'0 0.0
2015-Jul-22 13:33N 35°30' E 139°43'0 0.0
2015-Jul-22 12:33N 35°30' E 139°43'0 0.0
2015-Jul-22 11:30N 35°30' E 139°43'0 0.0
2015-Jul-22 10:33N 35°30' E 139°43'0 0.0
2015-Jul-22 09:30N 35°30' E 139°43'0 0.0
2015-Jul-22 08:30N 35°30' E 139°43'0 0.0
2015-Jul-22 07:30N 35°30' E 139°43'0 0.0
2015-Jul-22 06:30N 35°30' E 139°43'0 0.0
2015-Jul-22 05:33N 35°30' E 139°43'0 0.0
2015-Jul-22 04:33N 35°30' E 139°43'0 0.0
2015-Jul-22 03:33N 35°30' E 139°43'0 0.0
2015-Jul-22 02:33N 35°30' E 139°43'0 0.0
2015-Jul-22 01:33N 35°30' E 139°43'0 0.0
2015-Jul-22 00:33N 35°30' E 139°43'0 0.0
2015-Jul-21 23:33N 35°30' E 139°43'3 3.2
2015-Jul-21 22:33N 35°30' E 139°47'1 1.5
2015-Jul-21 21:33N 35°29' E 139°48'0 0.0
2015-Jul-21 20:34N 35°29' E 139°48'0 0.0
2015-Jul-21 19:33N 35°29' E 139°48'0 0.0
2015-Jul-21 18:32N 35°29' E 139°48'0 0.0
2015-Jul-21 17:33N 35°29' E 139°48'0 0.0
2015-Jul-21 16:33N 35°29' E 139°48'0 0.0
2015-Jul-21 15:34N 35°29' E 139°48'0 0.0
2015-Jul-21 14:34N 35°29' E 139°48'0 0.0
2015-Jul-21 13:33N 35°29' E 139°48'0 0.0
2015-Jul-21 12:33N 35°29' E 139°48'0 0.0
2015-Jul-21 11:33N 35°29' E 139°48'0 0.0
2015-Jul-21 10:33N 35°29' E 139°48'5 4.6
2015-Jul-21 09:34N 35°25' E 139°46'1211.9
2015-Jul-21 08:34N 35°13' E 139°47'24710.8
2015-Jul-20 09:33N 34°01' E 134°59'1111.5
2015-Jul-20 08:33N 34°13' E 134°58'1211.8
2015-Jul-20 07:31N 34°24' E 135°03'1212.8
2015-Jul-20 06:33N 34°32' E 135°15'9 8.9
2015-Jul-20 05:33N 34°35' E 135°26'0 0.0
2015-Jul-20 04:22N 34°35' E 135°26'0 0.0
2015-Jul-20 03:28N 34°35' E 135°26'0 0.0
2015-Jul-20 01:28N 34°35' E 135°26'0 0.0
2015-Jul-20 00:28N 34°35' E 135°26'0 0.0
2015-Jul-19 23:33N 34°35' E 135°26'4 3.8
2015-Jul-19 22:33N 34°34' E 135°21'1110.7
2015-Jul-19 21:31N 34°33' E 135°08'9012.9
2015-Jul-19 14:33N 34°14' E 133°21'  

Dump ship's entire track history